Red Bluff Municipal Airport
KRBL : rendu visible

Aérodrome :











RETROUVEZ-NOUS SUR...

 
LOGIN :

S'inscrire | Disclaimer

   EN    FR    IT 

 









Légende :    VFR   VFR Marginal   IFR   IFR Intensif   IFR Très Intensif
Visi : 
Plafond : 
>= 8 km
>= 3000ft
5 à 8 km
1000 à 3000 ft
1500m à 5 km
500 à 1000 ft
800 à 1500m
200 à 500 ft
< 800m
< 200 ft
Symboles :   Orages  Brouillard  Fortes neiges  Fortes précipitations  Vent > 20 kt






- Altitude de l'aérodrome : 352 ft


KRBL - Red Bluff Municipal

DERNIER METAR :
  • 290854Z AUTO 15008KT 10SM -RA OVC007 10/09 A3010 RMK AO2 CIG 005V010 SLP193 P0000 60001 T01000089 56004

METARs EXPIRÉS :
  • 290754Z AUTO 15006KT 10SM -RA OVC006 10/09 A3011 RMK AO2 SLP194 P0000 T01000089 401390083
  • 290724Z AUTO 14007KT 10SM -RA OVC008 10/09 A3011 RMK AO2 CIG 007V012 P0000 T01000089
  • 290654Z AUTO 13007KT 10SM -RA OVC012 10/09 A3010 RMK AO2 RAE04B10 SLP193 P0001 T01000089
  • 290640Z AUTO 13005KT 9SM -RA OVC012 10/09 A3011 RMK AO2 RAE04B10 P0001 T01000089

TAF KRBL
Valide du 29 à 06h jusqu'au 30 à 06h UTC


290542Z 2906/3006 15009KT 6SM -SHRA BKN025 OVC040
FM291500 16008KT 6SM -SHRA BR OVC015



MET'MAP, la Météo Aéronautique d'un coup d'oeil ! - Copyright ORBIFLY Décembre 2007 - Disclaimer

ORBIFLY MET'MAP TEAM :

Programmation & Développement : Alexandra Zaïnal
Sur une idée originale de : Baudouin d'Aumeries
Assistance à la programmation : Marc-Olivier Méhu
Soutien technique & logistique : Manuel Goepfert

Contact : metmap@orbifly.com




SOURCES & CREDITS :

   NOAA       Earth
Advisory